CheckWX is a tool to help pilots better visualize weather data.  It is not intended as a substitute for an official pre-flight weather briefing.

17:13:25 UTC

KCKB METAR
North Central West Virginia Airport
Clarksburg, West Virginia, USA
Current

20 mins ago

KCKB 201653Z 36006KT 10SM OVC110 01/M09 A3046 RMK AO2 SLP321 T00111089
Observed
Feb-20 @ 16:53 UTC
Wind
  • 360° at 6 KTS
Visibility
10 SM
Flight Rules
VFR
Cloud Levels
  • Overcast at 11,000' AGL
Temperature
C / 34°F
Dewpoint
-9°C / 16°F
Humidity
48%
Altimeter
30.46" Hg
Pressure
1031.52 hPa
Previous

1 hour ago

KCKB 201553Z 03007KT 10SM OVC110 00/M09 A3046 RMK AO2 SLP322 T00001094
Observed
Feb-20 @ 15:53 UTC
Wind
  • 030° at 7 KTS
Visibility
10 SM
Flight Rules
VFR
Cloud Levels
  • Overcast at 11,000' AGL
Temperature
C / 32°F
Dewpoint
-9°C / 16°F
Humidity
51%
Altimeter
30.46" Hg
Pressure
1031.52 hPa
Previous

2 hours ago

KCKB 201453Z 34006KT 10SM SCT110 M01/M08 A3047 RMK AO2 SLP325 T10061083 53010
Observed
Feb-20 @ 14:53 UTC
Wind
  • 340° at 6 KTS
Visibility
10 SM
Flight Rules
VFR
Cloud Levels
  • Scattered at 11,000' AGL
Temperature
-1°C / 30°F
Dewpoint
-8°C / 18°F
Humidity
59%
Altimeter
30.47" Hg
Pressure
1031.82 hPa